Time;durP1;ratioP1;P1;durP2;ratioP2;P2;SDS_P1;SDS_P2;PMS_P1;PMS_P2;Temp;Humidity;BMP_temperature;BMP_pressure;BME280_temperature;BME280_humidity;BME280_pressure;Samples;Min_cycle;Max_cycle;Signal;HPM_P1;HPM_P2
2023/06/20 00:00:36;;;;;;;5.13;4.45;;;;;27.10;101121.00;;;;5089260;28;20280;-77
2023/06/20 00:03:03;;;;;;;4.55;4.05;;;;;27.10;101118.00;;;;5087063;28;20193;-77
2023/06/20 00:05:31;;;;;;;9.38;4.30;;;;;27.10;101118.00;;;;5084911;28;20203;-78
2023/06/20 00:07:59;;;;;;;5.97;4.28;;;;;27.10;101114.00;;;;5073249;28;20190;-78
2023/06/20 00:10:27;;;;;;;6.38;3.92;;;;;27.10;101112.00;;;;5087684;28;20225;-77
2023/06/20 00:12:54;;;;;;;6.68;4.20;;;;;27.10;101104.00;;;;5089144;28;20194;-77
2023/06/20 00:15:25;;;;;;;6.25;3.75;;;;;27.10;101100.00;;;;5086502;28;20221;-78
2023/06/20 00:17:52;;;;;;;5.25;3.85;;;;;27.10;101096.00;;;;5089103;28;20225;-78
2023/06/20 00:20:20;;;;;;;6.60;4.38;;;;;27.00;101094.00;;;;5087917;28;20213;-78
2023/06/20 00:22:50;;;;;;;6.57;4.10;;;;;27.00;101092.00;;;;5081622;28;20210;-77
2023/06/20 00:25:19;;;;;;;5.55;4.07;;;;;27.00;101102.00;;;;5078252;28;20838;-78
2023/06/20 00:27:46;;;;;;;9.38;4.78;;;;;27.00;101100.00;;;;5085319;28;20198;-77
2023/06/20 00:30:14;;;;;;;5.45;3.63;;;;;27.00;101102.00;;;;5087685;28;20195;-77
2023/06/20 00:32:42;;;;;;;4.57;3.90;;;;;27.00;101090.00;;;;5087694;28;20242;-78
2023/06/20 00:35:10;;;;;;;7.90;4.43;;;;;27.00;101096.00;;;;5088577;28;20213;-78
2023/06/20 00:37:38;;;;;;;8.38;4.30;;;;;26.90;101100.00;;;;5087279;28;20574;-78
2023/06/20 00:40:07;;;;;;;6.60;4.78;;;;;26.90;101103.00;;;;5088543;28;20256;-78
2023/06/20 00:42:36;;;;;;;4.70;3.83;;;;;26.90;101090.00;;;;5077315;28;20708;-78
2023/06/20 00:45:04;;;;;;;8.10;4.15;;;;;26.90;101096.00;;;;5078614;28;20695;-78
2023/06/20 00:47:31;;;;;;;4.47;3.45;;;;;26.90;101090.00;;;;5073629;28;20206;-77
2023/06/20 00:49:59;;;;;;;6.63;4.53;;;;;26.90;101092.00;;;;5086237;28;20198;-77
2023/06/20 00:52:26;;;;;;;4.30;3.75;;;;;26.90;101090.00;;;;5088084;28;20201;-78
2023/06/20 00:54:53;;;;;;;6.93;4.50;;;;;26.90;101083.00;;;;5087775;28;20198;-78
2023/06/20 00:57:22;;;;;;;5.10;4.05;;;;;26.90;101083.00;;;;5083467;28;20210;-78
2023/06/20 00:59:51;;;;;;;6.63;4.50;;;;;26.80;101086.00;;;;5067485;28;20607;-78
2023/06/20 01:02:20;;;;;;;4.47;4.07;;;;;26.80;101091.00;;;;5079332;28;20198;-78
2023/06/20 01:04:48;;;;;;;5.85;4.57;;;;;26.90;101090.00;;;;5087827;28;20222;-77
2023/06/20 01:07:24;;;;;;;6.85;4.28;;;;;26.80;101084.00;;;;5087127;28;20206;-77
2023/06/20 01:10:00;;;;;;;4.55;4.10;;;;;26.80;101093.00;;;;5086527;28;20252;-78
2023/06/20 01:12:35;;;;;;;4.80;4.22;;;;;26.80;101090.00;;;;5087403;28;20209;-77
2023/06/20 01:15:14;;;;;;;4.97;3.88;;;;;26.70;101102.00;;;;5086137;28;20201;-78
2023/06/20 01:17:47;;;;;;;5.47;3.85;;;;;26.80;101101.00;;;;5087652;28;20193;-77
2023/06/20 01:20:17;;;;;;;5.75;4.10;;;;;26.80;101093.00;;;;5092853;28;20241;-77
2023/06/20 01:22:56;;;;;;;5.13;4.28;;;;;26.70;101101.00;;;;5078880;28;20194;-78
2023/06/20 01:25:31;;;;;;;5.00;4.03;;;;;26.80;101091.00;;;;5068639;28;20231;-78
2023/06/20 01:28:07;;;;;;;4.72;3.85;;;;;26.70;101086.00;;;;5079720;28;20199;-78
2023/06/20 01:30:40;;;;;;;4.63;3.65;;;;;26.80;101099.00;;;;5088545;28;20564;-78
2023/06/20 01:33:09;;;;;;;5.88;3.78;;;;;26.80;101092.00;;;;5084895;28;20198;-78
2023/06/20 01:35:39;;;;;;;4.10;3.42;;;;;26.80;101087.00;;;;5088384;28;20198;-78
2023/06/20 01:38:10;;;;;;;5.35;4.32;;;;;26.80;101092.00;;;;5088390;28;20190;-77
2023/06/20 01:40:39;;;;;;;6.10;4.10;;;;;26.80;101091.00;;;;5080966;28;20214;-78
2023/06/20 01:43:07;;;;;;;5.90;4.68;;;;;26.80;101091.00;;;;5088002;28;20195;-77
2023/06/20 01:45:39;;;;;;;6.72;4.30;;;;;26.80;101092.00;;;;5084226;28;20221;-78
2023/06/20 01:48:09;;;;;;;7.25;4.35;;;;;26.80;101092.00;;;;5087576;28;20199;-78
2023/06/20 01:50:38;;;;;;;7.07;4.18;;;;;26.80;101088.00;;;;5086339;28;20209;-78
2023/06/20 01:53:08;;;;;;;4.25;3.40;;;;;26.80;101079.00;;;;5081647;28;21878;-78
2023/06/20 01:55:37;;;;;;;5.95;4.25;;;;;26.80;101078.00;;;;5077434;28;20256;-78
2023/06/20 01:58:05;;;;;;;7.22;4.13;;;;;26.80;101085.00;;;;5092195;28;20194;-78
2023/06/20 02:00:34;;;;;;;5.80;4.05;;;;;26.80;101076.00;;;;5090840;28;20222;-78
2023/06/20 02:03:02;;;;;;;4.47;3.75;;;;;26.70;101065.00;;;;5089801;28;20260;-77
2023/06/20 02:05:32;;;;;;;5.80;3.95;;;;;26.70;101066.00;;;;5085015;28;20223;-78
2023/06/20 02:08:00;;;;;;;4.75;3.92;;;;;26.70;101064.00;;;;5083489;28;20622;-78
2023/06/20 02:10:30;;;;;;;4.97;3.83;;;;;26.70;101061.00;;;;5091505;28;20222;-78
2023/06/20 02:12:59;;;;;;;5.43;4.50;;;;;26.70;101060.00;;;;5091955;28;20183;-78
2023/06/20 02:15:27;;;;;;;6.65;3.80;;;;;26.70;101052.00;;;;5090497;28;20556;-78
2023/06/20 02:17:55;;;;;;;5.00;4.07;;;;;26.70;101054.00;;;;5090604;28;20205;-78
2023/06/20 02:20:23;;;;;;;4.20;3.60;;;;;26.70;101045.00;;;;5090546;28;20686;-78
2023/06/20 02:22:55;;;;;;;6.30;3.72;;;;;26.70;101044.00;;;;5090804;28;20202;-78
2023/06/20 02:25:27;;;;;;;6.35;4.63;;;;;26.70;101037.00;;;;5091684;28;20254;-78
2023/06/20 02:27:57;;;;;;;5.95;4.47;;;;;26.70;101034.00;;;;5092003;28;20205;-78
2023/06/20 02:30:27;;;;;;;8.35;4.68;;;;;26.70;101029.00;;;;5090694;28;20210;-78
2023/06/20 02:32:56;;;;;;;5.60;4.18;;;;;26.70;101025.00;;;;5090806;28;20225;-78
2023/06/20 02:35:25;;;;;;;5.68;4.28;;;;;26.70;101025.00;;;;5090941;28;20213;-77
2023/06/20 02:37:57;;;;;;;4.70;3.17;;;;;26.60;101033.00;;;;5088537;28;20190;-77
2023/06/20 02:40:25;;;;;;;5.25;4.15;;;;;26.60;101026.00;;;;5089418;28;20210;-78
2023/06/20 02:42:52;;;;;;;4.60;4.13;;;;;26.60;101030.00;;;;5091381;28;20206;-78
2023/06/20 02:45:21;;;;;;;4.22;3.75;;;;;26.60;101019.00;;;;5091369;28;20688;-77
2023/06/20 02:48:00;;;;;;;4.55;4.07;;;;;26.60;101021.00;;;;5091124;28;20206;-77
2023/06/20 02:50:34;;;;;;;4.90;3.85;;;;;26.60;101024.00;;;;5090162;28;20205;-77
2023/06/20 02:53:11;;;;;;;5.78;4.18;;;;;26.60;101025.00;;;;5090000;28;20198;-77
2023/06/20 02:55:45;;;;;;;5.28;3.90;;;;;26.60;101025.00;;;;5083509;28;20289;-77
2023/06/20 02:58:15;;;;;;;4.35;3.72;;;;;26.60;101020.00;;;;5082452;28;20247;-78
2023/06/20 03:00:48;;;;;;;7.80;4.40;;;;;26.60;101022.00;;;;5090602;28;20198;-77
2023/06/20 03:03:19;;;;;;;6.28;4.10;;;;;26.60;101023.00;;;;5090593;28;20182;-76
2023/06/20 03:05:47;;;;;;;5.10;4.40;;;;;26.60;101030.00;;;;5090648;28;20231;-77
2023/06/20 03:08:17;;;;;;;5.68;4.32;;;;;26.60;101026.00;;;;5089660;28;20552;-77
2023/06/20 03:10:45;;;;;;;4.28;3.75;;;;;26.60;101023.00;;;;5087831;28;20225;-77
2023/06/20 03:13:14;;;;;;;6.32;4.55;;;;;26.60;101017.00;;;;5087133;28;20199;-77
2023/06/20 03:15:43;;;;;;;7.63;4.20;;;;;26.60;101023.00;;;;5086729;28;20205;-78
2023/06/20 03:18:11;;;;;;;6.25;4.25;;;;;26.60;101019.00;;;;5088992;28;20194;-77
2023/06/20 03:20:43;;;;;;;4.75;4.22;;;;;26.60;101021.00;;;;5089413;28;20194;-78
2023/06/20 03:23:10;;;;;;;7.60;4.22;;;;;26.60;101028.00;;;;5090077;28;20622;-77
2023/06/20 03:25:38;;;;;;;4.88;3.85;;;;;26.60;101023.00;;;;5090147;28;20233;-78
2023/06/20 03:28:05;;;;;;;4.40;3.53;;;;;26.60;101022.00;;;;5089937;28;20198;-77
2023/06/20 03:30:33;;;;;;;5.28;4.15;;;;;26.50;101016.00;;;;5089739;28;20195;-78
2023/06/20 03:33:01;;;;;;;6.53;4.13;;;;;26.50;101015.00;;;;5090250;28;20226;-78
2023/06/20 03:35:29;;;;;;;6.70;3.70;;;;;26.60;101008.00;;;;5099265;28;20202;-78
2023/06/20 03:37:56;;;;;;;4.78;3.90;;;;;26.60;101010.00;;;;5086204;28;20635;-77
2023/06/20 03:40:25;;;;;;;7.00;4.10;;;;;26.60;101014.00;;;;5086046;28;20209;-77
2023/06/20 03:42:52;;;;;;;4.22;3.83;;;;;26.60;101015.00;;;;5087034;28;20194;-77
2023/06/20 03:45:20;;;;;;;4.70;3.83;;;;;26.60;101014.00;;;;5083023;28;20225;-78
2023/06/20 03:47:47;;;;;;;5.72;4.05;;;;;26.60;101010.00;;;;5083616;28;20202;-78
2023/06/20 03:50:16;;;;;;;5.35;4.05;;;;;26.60;101009.00;;;;5081742;28;20198;-78
2023/06/20 03:52:43;;;;;;;5.63;4.03;;;;;26.60;101009.00;;;;5086168;28;21054;-78
2023/06/20 03:55:10;;;;;;;5.78;4.30;;;;;26.60;101013.00;;;;5080491;28;20202;-78
2023/06/20 03:57:38;;;;;;;7.60;4.40;;;;;26.60;101017.00;;;;5088788;28;20206;-78
2023/06/20 04:00:09;;;;;;;7.30;4.43;;;;;26.60;101009.00;;;;5083280;28;20214;-78
2023/06/20 04:02:37;;;;;;;4.90;3.97;;;;;26.60;101014.00;;;;5081281;28;20194;-78
2023/06/20 04:05:04;;;;;;;6.07;4.45;;;;;26.60;101012.00;;;;5089672;28;20233;-78
2023/06/20 04:07:33;;;;;;;4.88;3.72;;;;;26.60;101007.00;;;;5086422;28;20194;-78
2023/06/20 04:10:00;;;;;;;6.28;4.15;;;;;26.70;101010.00;;;;5089884;28;20230;-77
2023/06/20 04:12:28;;;;;;;7.30;4.75;;;;;26.70;101012.00;;;;5089017;28;20619;-78
2023/06/20 04:14:55;;;;;;;6.25;4.53;;;;;26.70;101009.00;;;;5089248;28;20202;-78
2023/06/20 04:17:23;;;;;;;4.10;3.70;;;;;26.70;101008.00;;;;5088887;28;20198;-77
2023/06/20 04:19:50;;;;;;;5.22;4.55;;;;;26.70;101006.00;;;;5086984;28;20194;-78
2023/06/20 04:22:17;;;;;;;7.40;4.47;;;;;26.70;101007.00;;;;5084076;28;20213;-77
2023/06/20 04:24:49;;;;;;;5.72;4.18;;;;;26.70;101010.00;;;;5088059;28;20198;-78
2023/06/20 04:27:16;;;;;;;5.72;4.40;;;;;26.70;101010.00;;;;5107127;28;20204;-78
2023/06/20 04:29:43;;;;;;;6.25;4.18;;;;;26.80;101008.00;;;;5091761;28;20206;-77
2023/06/20 04:32:11;;;;;;;5.88;4.78;;;;;26.80;101017.00;;;;5088479;28;20218;-78
2023/06/20 04:34:38;;;;;;;5.20;4.57;;;;;26.80;101017.00;;;;5088864;28;20202;-77
2023/06/20 04:37:05;;;;;;;5.80;4.55;;;;;26.80;101016.00;;;;5082026;28;20198;-77
2023/06/20 04:39:32;;;;;;;5.05;4.53;;;;;26.80;101012.00;;;;5085296;28;20198;-78
2023/06/20 04:42:01;;;;;;;4.60;3.72;;;;;26.80;101013.00;;;;5082670;28;20213;-77
2023/06/20 04:44:28;;;;;;;7.63;4.50;;;;;26.80;101013.00;;;;5087810;28;20202;-78
2023/06/20 04:46:56;;;;;;;4.97;4.00;;;;;26.80;101010.00;;;;5088333;28;20222;-78
2023/06/20 04:49:23;;;;;;;6.35;4.55;;;;;26.90;101010.00;;;;5089399;28;20202;-78
2023/06/20 04:51:50;;;;;;;5.93;4.47;;;;;26.90;101013.00;;;;5088017;28;20210;-78
2023/06/20 04:54:19;;;;;;;6.38;4.38;;;;;26.90;101016.00;;;;5088117;28;20213;-78
2023/06/20 04:56:46;;;;;;;6.50;4.28;;;;;26.90;101013.00;;;;5082367;28;20402;-79
2023/06/20 04:59:15;;;;;;;5.65;4.70;;;;;26.90;101010.00;;;;5089801;28;20205;-79
2023/06/20 05:01:42;;;;;;;6.10;4.18;;;;;26.90;101004.00;;;;5081685;28;20209;-77
2023/06/20 05:04:09;;;;;;;5.72;4.53;;;;;27.00;101000.00;;;;5080483;28;20743;-77
2023/06/20 05:06:37;;;;;;;5.88;5.03;;;;;27.00;101004.00;;;;5087820;28;20221;-79
2023/06/20 05:09:04;;;;;;;6.75;5.13;;;;;27.00;101003.00;;;;5087087;28;20198;-79
2023/06/20 05:11:31;;;;;;;6.80;5.03;;;;;27.00;101001.00;;;;5088203;28;20202;-78
2023/06/20 05:13:58;;;;;;;5.70;5.10;;;;;27.00;100993.00;;;;5083616;28;20208;-80
2023/06/20 05:16:27;;;;;;;5.47;4.22;;;;;27.00;100997.00;;;;5083521;28;20195;-80
2023/06/20 05:18:54;;;;;;;6.10;4.47;;;;;27.10;100997.00;;;;5087690;28;20668;-80
2023/06/20 05:21:25;;;;;;;5.65;5.00;;;;;27.10;101003.00;;;;5087425;28;20213;-83
2023/06/20 05:23:53;;;;;;;5.45;4.60;;;;;27.10;100996.00;;;;5090468;28;20580;-84
2023/06/20 05:26:20;;;;;;;5.43;4.63;;;;;27.10;100995.00;;;;5088990;28;20230;-81
2023/06/20 05:28:47;;;;;;;8.23;5.35;;;;;27.20;100998.00;;;;5089689;28;20205;-79
2023/06/20 05:31:14;;;;;;;5.63;4.53;;;;;27.20;100991.00;;;;5077401;28;20225;-78
2023/06/20 05:33:43;;;;;;;5.80;4.68;;;;;27.20;100996.00;;;;5089766;28;21067;-77
2023/06/20 05:36:10;;;;;;;5.10;4.35;;;;;27.30;100994.00;;;;5091274;28;20205;-78
2023/06/20 05:38:38;;;;;;;6.55;4.18;;;;;27.30;100992.00;;;;5089888;28;20190;-78
2023/06/20 05:41:05;;;;;;;5.10;4.32;;;;;27.30;100988.00;;;;5089949;28;20209;-78
2023/06/20 05:43:33;;;;;;;5.97;5.03;;;;;27.40;100987.00;;;;5088736;28;20213;-78
2023/06/20 05:46:00;;;;;;;5.28;4.78;;;;;27.40;100982.00;;;;5088493;28;20242;-79
2023/06/20 05:48:27;;;;;;;5.95;5.13;;;;;27.50;100977.00;;;;5090722;28;20213;-78
2023/06/20 05:50:56;;;;;;;5.97;5.38;;;;;27.60;100984.00;;;;5090710;28;20190;-80
2023/06/20 05:53:23;;;;;;;6.75;4.35;;;;;27.70;100976.00;;;;5092387;28;20197;-80
2023/06/20 05:55:51;;;;;;;6.15;4.63;;;;;27.80;100976.00;;;;5089983;28;20195;-80
2023/06/20 05:58:19;;;;;;;9.07;5.55;;;;;27.90;100977.00;;;;5091173;28;20663;-79
2023/06/20 06:00:46;;;;;;;4.93;4.53;;;;;28.00;100976.00;;;;5089305;28;20586;-80
2023/06/20 06:03:14;;;;;;;5.28;4.78;;;;;28.10;100975.00;;;;5087395;28;20682;-76
2023/06/20 06:05:41;;;;;;;5.22;4.60;;;;;28.10;100970.00;;;;5084251;28;20218;-76
2023/06/20 06:08:11;;;;;;;6.00;5.38;;;;;28.20;100963.00;;;;5091023;28;20198;-76
2023/06/20 06:10:39;;;;;;;6.50;5.13;;;;;28.30;100965.00;;;;5091090;28;20218;-77
2023/06/20 06:13:06;;;;;;;5.90;5.15;;;;;28.30;100963.00;;;;5088831;28;20197;-80
2023/06/20 06:15:34;;;;;;;6.25;5.65;;;;;28.40;100963.00;;;;5086729;28;20295;-78
2023/06/20 06:18:03;;;;;;;5.78;5.00;;;;;28.40;100962.00;;;;5086844;28;20211;-78
2023/06/20 06:20:30;;;;;;;4.93;4.43;;;;;28.50;100961.00;;;;5088965;28;20206;-79
2023/06/20 06:22:58;;;;;;;6.13;5.50;;;;;28.60;100969.00;;;;5090534;28;20194;-79
2023/06/20 06:25:27;;;;;;;7.10;5.53;;;;;28.60;100966.00;;;;5090150;28;20222;-79
2023/06/20 06:27:54;;;;;;;7.28;4.75;;;;;28.70;100970.00;;;;5090102;28;20221;-79
2023/06/20 06:30:22;;;;;;;5.90;5.05;;;;;28.70;100975.00;;;;5090824;28;20591;-79
2023/06/20 06:32:49;;;;;;;6.57;5.75;;;;;28.70;100976.00;;;;5088704;28;20221;-79
2023/06/20 06:35:17;;;;;;;6.88;5.35;;;;;28.80;100972.00;;;;5091135;28;20194;-80
2023/06/20 06:37:46;;;;;;;6.68;5.32;;;;;28.80;100979.00;;;;5089890;28;20198;-80
2023/06/20 06:40:14;;;;;;;7.38;5.32;;;;;28.80;100978.00;;;;5091330;28;20209;-78
2023/06/20 06:42:42;;;;;;;5.70;4.82;;;;;28.80;100982.00;;;;5090276;28;20206;-78
2023/06/20 06:45:10;;;;;;;6.13;5.07;;;;;28.90;100980.00;;;;5089917;28;20602;-79
2023/06/20 06:47:38;;;;;;;7.35;5.25;;;;;28.90;100985.00;;;;5087524;28;20194;-78
2023/06/20 06:50:06;;;;;;;8.45;5.40;;;;;28.90;100988.00;;;;5089774;28;20202;-79
2023/06/20 06:52:34;;;;;;;6.53;5.75;;;;;29.00;100991.00;;;;5088935;28;20195;-78
2023/06/20 06:55:01;;;;;;;5.72;5.07;;;;;29.10;100990.00;;;;5086243;28;20205;-79
2023/06/20 06:57:29;;;;;;;8.40;6.00;;;;;29.10;100984.00;;;;5090269;28;20194;-80
2023/06/20 06:59:57;;;;;;;8.68;5.88;;;;;29.20;100974.00;;;;5089769;28;20202;-80
2023/06/20 07:02:26;;;;;;;7.25;6.35;;;;;29.30;100974.00;;;;5086717;28;20195;-79
2023/06/20 07:04:54;;;;;;;7.20;6.50;;;;;29.40;100969.00;;;;5084200;28;20608;-80
2023/06/20 07:07:21;;;;;;;7.75;6.03;;;;;29.50;100971.00;;;;5084636;28;20222;-79
2023/06/20 07:09:49;;;;;;;7.95;6.70;;;;;29.60;100976.00;;;;5088648;28;20218;-79
2023/06/20 07:12:16;;;;;;;7.20;6.50;;;;;29.60;100967.00;;;;5076646;28;20199;-78
2023/06/20 07:14:43;;;;;;;7.85;6.40;;;;;29.70;100973.00;;;;5088080;28;20656;-79
2023/06/20 07:17:12;;;;;;;7.97;6.55;;;;;29.70;100977.00;;;;5088308;28;20209;-78
2023/06/20 07:19:39;;;;;;;9.65;7.43;;;;;29.80;100986.00;;;;5086313;28;20203;-78
2023/06/20 07:22:07;;;;;;;8.98;6.43;;;;;29.80;100978.00;;;;5088040;28;20194;-78
2023/06/20 07:24:34;;;;;;;7.55;6.75;;;;;29.80;100978.00;;;;5084774;28;20198;-79
2023/06/20 07:27:01;;;;;;;8.63;6.97;;;;;29.90;100973.00;;;;5088330;28;20236;-78
2023/06/20 07:29:29;;;;;;;8.27;7.30;;;;;30.00;100974.00;;;;5087942;28;20198;-78
2023/06/20 07:31:56;;;;;;;8.27;6.20;;;;;30.10;100973.00;;;;5086281;28;20230;-78
2023/06/20 07:34:25;;;;;;;10.75;7.47;;;;;30.10;100960.00;;;;5088577;28;20198;-79
2023/06/20 07:36:52;;;;;;;8.35;7.47;;;;;30.20;100960.00;;;;5085193;28;20978;-79
2023/06/20 07:39:20;;;;;;;9.52;8.02;;;;;30.30;100973.00;;;;5079518;28;20201;-79
2023/06/20 07:41:47;;;;;;;8.25;7.43;;;;;30.30;100974.00;;;;5081751;28;20244;-79
2023/06/20 07:44:14;;;;;;;8.80;7.35;;;;;30.30;100973.00;;;;5087318;28;20202;-79
2023/06/20 07:46:42;;;;;;;10.57;7.85;;;;;30.40;100973.00;;;;5084508;28;20226;-79
2023/06/20 07:49:09;;;;;;;8.90;6.70;;;;;30.40;100972.00;;;;5088137;28;20197;-78
2023/06/20 07:51:40;;;;;;;10.13;7.25;;;;;30.50;100959.00;;;;5085987;28;20224;-79
2023/06/20 07:54:08;;;;;;;8.68;6.53;;;;;30.50;100961.00;;;;5088183;28;20199;-79
2023/06/20 07:56:36;;;;;;;7.05;6.30;;;;;30.60;100963.00;;;;5088694;28;20308;-79
2023/06/20 07:59:04;;;;;;;7.07;6.38;;;;;30.60;100967.00;;;;5088425;28;20198;-79
2023/06/20 08:01:31;;;;;;;10.25;7.30;;;;;30.70;100962.00;;;;5082418;28;20195;-78
2023/06/20 08:03:59;;;;;;;7.03;6.38;;;;;30.80;100956.00;;;;5082430;28;20279;-78
2023/06/20 08:06:26;;;;;;;8.35;7.22;;;;;30.90;100953.00;;;;5085991;28;20222;-79
2023/06/20 08:08:55;;;;;;;8.95;6.25;;;;;30.90;100952.00;;;;5088081;28;20198;-79
2023/06/20 08:11:22;;;;;;;7.35;6.07;;;;;31.00;100954.00;;;;5085571;28;20261;-78
2023/06/20 08:13:50;;;;;;;7.97;6.45;;;;;31.10;100955.00;;;;5088451;28;20200;-79
2023/06/20 08:16:17;;;;;;;8.30;6.93;;;;;31.20;100951.00;;;;5086753;28;20943;-80
2023/06/20 08:18:44;;;;;;;7.60;6.30;;;;;31.30;100943.00;;;;5081009;28;20787;-78
2023/06/20 08:21:12;;;;;;;7.28;6.15;;;;;31.40;100946.00;;;;5081412;28;20197;-79
2023/06/20 08:23:39;;;;;;;8.88;6.80;;;;;31.50;100934.00;;;;5081242;28;20198;-79
2023/06/20 08:26:08;;;;;;;6.38;5.78;;;;;31.50;100935.00;;;;5087792;28;20226;-80
2023/06/20 08:28:35;;;;;;;7.78;6.72;;;;;31.60;100938.00;;;;5087957;28;20193;-79
2023/06/20 08:31:04;;;;;;;9.52;6.32;;;;;31.70;100941.00;;;;5086817;28;20305;-79
2023/06/20 08:33:31;;;;;;;6.93;6.18;;;;;31.70;100942.00;;;;5083863;28;20221;-79
2023/06/20 08:35:59;;;;;;;8.57;6.45;;;;;31.80;100941.00;;;;5084234;28;20209;-78
2023/06/20 08:38:26;;;;;;;10.48;6.85;;;;;31.80;100945.00;;;;5070777;28;20198;-79
2023/06/20 08:40:53;;;;;;;8.30;6.50;;;;;31.90;100954.00;;;;5087009;28;20206;-79
2023/06/20 08:43:22;;;;;;;6.72;6.03;;;;;31.90;100960.00;;;;5084796;28;20202;-79
2023/06/20 08:45:55;;;;;;;7.75;6.20;;;;;32.00;100955.00;;;;5086735;28;20198;-79
2023/06/20 08:48:23;;;;;;;8.02;5.93;;;;;32.10;100951.00;;;;5087202;28;21130;-79
2023/06/20 08:50:51;;;;;;;9.73;6.38;;;;;32.20;100953.00;;;;5082424;28;20214;-78
2023/06/20 08:53:20;;;;;;;8.50;6.75;;;;;32.20;100954.00;;;;5080793;28;20194;-80
2023/06/20 08:55:48;;;;;;;7.10;6.25;;;;;32.30;100959.00;;;;5086929;28;20193;-79
2023/06/20 08:58:15;;;;;;;6.78;5.28;;;;;32.40;100952.00;;;;5085340;28;20186;-79
2023/06/20 09:00:45;;;;;;;5.70;5.13;;;;;32.50;100954.00;;;;5085108;28;20194;-78
2023/06/20 09:03:13;;;;;;;5.30;4.80;;;;;32.60;100950.00;;;;5086451;28;20229;-79
2023/06/20 09:05:42;;;;;;;4.75;4.35;;;;;32.70;100944.00;;;;5084846;28;20213;-80
2023/06/20 09:08:13;;;;;;;5.05;4.55;;;;;32.70;100947.00;;;;5086009;28;20221;-80
2023/06/20 09:10:40;;;;;;;5.80;4.70;;;;;32.90;100945.00;;;;5074258;28;20217;-80
2023/06/20 09:13:08;;;;;;;5.70;4.93;;;;;32.90;100943.00;;;;5083675;28;20281;-80
2023/06/20 09:15:37;;;;;;;5.57;5.05;;;;;33.00;100944.00;;;;5086124;28;20198;-80
2023/06/20 09:18:07;;;;;;;5.45;4.80;;;;;33.10;100942.00;;;;5086915;28;20190;-79
2023/06/20 09:20:35;;;;;;;6.95;5.10;;;;;33.20;100944.00;;;;5085975;28;20197;-79
2023/06/20 09:23:02;;;;;;;6.75;5.32;;;;;33.30;100941.00;;;;5085200;28;20201;-79
2023/06/20 09:25:30;;;;;;;5.53;4.93;;;;;33.30;100943.00;;;;5084308;28;20251;-79
2023/06/20 09:27:58;;;;;;;4.78;4.32;;;;;33.40;100951.00;;;;5076553;28;20218;-79
2023/06/20 09:30:30;;;;;;;4.55;4.10;;;;;33.40;100941.00;;;;5085590;28;20193;-79
2023/06/20 09:33:04;;;;;;;5.55;3.63;;;;;33.40;100941.00;;;;5086466;28;20233;-79
2023/06/20 09:35:33;;;;;;;4.57;4.18;;;;;33.50;100945.00;;;;5086347;28;20281;-78
2023/06/20 09:38:04;;;;;;;4.63;3.63;;;;;33.60;100947.00;;;;5086379;28;20198;-78
2023/06/20 09:40:42;;;;;;;4.18;3.78;;;;;33.70;100944.00;;;;5083872;28;20194;-82
2023/06/20 09:43:10;;;;;;;4.60;4.05;;;;;33.80;100942.00;;;;5080259;28;20265;-80
2023/06/20 09:45:37;;;;;;;4.65;3.75;;;;;33.90;100945.00;;;;5081963;28;20663;-79
2023/06/20 09:48:07;;;;;;;8.88;5.68;;;;;33.90;100949.00;;;;5085735;28;20222;-80
2023/06/20 09:50:38;;;;;;;6.00;4.82;;;;;34.00;100941.00;;;;5084843;28;20205;-79
2023/06/20 09:53:16;;;;;;;7.03;5.65;;;;;34.00;100938.00;;;;5085289;28;20289;-80
2023/06/20 09:55:44;;;;;;;7.30;4.57;;;;;34.20;100936.00;;;;5085448;28;21088;-80
2023/06/20 09:58:13;;;;;;;5.60;5.05;;;;;34.30;100935.00;;;;5091387;28;20198;-79
2023/06/20 10:00:40;;;;;;;5.15;4.65;;;;;34.40;100937.00;;;;5086173;28;20225;-80
2023/06/20 10:03:09;;;;;;;6.07;4.80;;;;;34.40;100950.00;;;;5085920;28;20213;-79
2023/06/20 10:05:38;;;;;;;6.22;5.25;;;;;34.50;100946.00;;;;5084742;28;20194;-82
2023/06/20 10:08:07;;;;;;;5.63;5.13;;;;;34.60;100947.00;;;;5088095;28;20225;-79
2023/06/20 10:10:34;;;;;;;6.40;5.78;;;;;34.70;100951.00;;;;5090282;28;20217;-80
2023/06/20 10:13:01;;;;;;;11.93;5.32;;;;;34.80;100949.00;;;;5087590;28;20194;-79
2023/06/20 10:15:29;;;;;;;5.50;4.75;;;;;34.80;100947.00;;;;5089414;28;20209;-79
2023/06/20 10:17:56;;;;;;;5.50;5.00;;;;;34.90;100943.00;;;;5088095;28;20186;-80
2023/06/20 10:20:28;;;;;;;11.00;5.60;;;;;34.90;100942.00;;;;5084672;28;20208;-79
2023/06/20 10:22:58;;;;;;;6.32;5.10;;;;;34.90;100932.00;;;;5088515;28;20205;-79
2023/06/20 10:25:27;;;;;;;6.75;6.10;;;;;35.00;100932.00;;;;5089836;28;20190;-79
2023/06/20 10:28:00;;;;;;;6.35;5.75;;;;;35.00;100931.00;;;;5088989;28;20599;-82
2023/06/20 10:30:56;;;;;;;6.82;6.10;;;;;35.00;100930.00;;;;5077413;28;20198;-80
2023/06/20 10:33:25;;;;;;;8.05;6.15;;;;;35.10;100932.00;;;;5081157;28;20209;-80
2023/06/20 10:35:56;;;;;;;6.97;5.75;;;;;35.20;100932.00;;;;5088144;28;20190;-80
2023/06/20 10:38:25;;;;;;;6.97;5.72;;;;;35.20;100930.00;;;;5085799;28;20228;-80
2023/06/20 10:41:09;;;;;;;5.82;5.30;;;;;35.10;100930.00;;;;5087022;28;20655;-78
2023/06/20 10:43:51;;;;;;;6.03;5.45;;;;;35.20;100932.00;;;;5085713;28;20193;-80
2023/06/20 10:46:19;;;;;;;4.95;4.45;;;;;35.30;100930.00;;;;5073111;28;20194;-80
2023/06/20 10:48:46;;;;;;;4.72;4.32;;;;;35.30;100922.00;;;;5089187;28;20221;-80
2023/06/20 10:51:14;;;;;;;6.30;5.15;;;;;35.30;100917.00;;;;5086754;28;20212;-81
2023/06/20 10:53:42;;;;;;;4.38;3.85;;;;;35.30;100904.00;;;;5084694;28;20758;-81
2023/06/20 10:56:21;;;;;;;3.83;3.50;;;;;35.40;100911.00;;;;5087065;28;20208;-82
2023/06/20 10:58:50;;;;;;;4.22;3.83;;;;;35.40;100907.00;;;;5084414;28;20198;-80
2023/06/20 11:01:18;;;;;;;4.80;4.05;;;;;35.30;100913.00;;;;5085991;28;20202;-81
2023/06/20 11:03:46;;;;;;;6.95;3.80;;;;;35.30;100903.00;;;;5086828;28;20194;-83
2023/06/20 11:06:16;;;;;;;4.07;2.88;;;;;35.30;100900.00;;;;5089905;28;20194;-81
2023/06/20 11:08:46;;;;;;;3.50;2.85;;;;;35.40;100896.00;;;;5086224;28;20225;-80
2023/06/20 11:11:13;;;;;;;2.70;2.50;;;;;35.50;100897.00;;;;5073850;28;20710;-80
2023/06/20 11:13:43;;;;;;;3.33;2.85;;;;;35.50;100892.00;;;;5087830;28;20210;-80
2023/06/20 11:16:18;;;;;;;3.50;3.08;;;;;35.40;100886.00;;;;5085444;28;20190;-82
2023/06/20 11:18:46;;;;;;;2.72;2.53;;;;;35.50;100885.00;;;;5086286;28;20201;-81
2023/06/20 11:21:15;;;;;;;3.00;2.80;;;;;35.60;100888.00;;;;5088293;28;20193;-81
2023/06/20 11:23:42;;;;;;;2.50;2.30;;;;;35.60;100884.00;;;;5088513;28;20674;-80
2023/06/20 11:26:11;;;;;;;2.97;2.67;;;;;35.70;100882.00;;;;5087826;28;20190;-80
2023/06/20 11:28:38;;;;;;;3.40;2.95;;;;;35.70;100880.00;;;;5080073;28;20217;-80
2023/06/20 11:31:10;;;;;;;2.38;2.20;;;;;35.70;100878.00;;;;5085844;28;20235;-80
2023/06/20 11:33:38;;;;;;;3.65;3.22;;;;;35.80;100861.00;;;;5088311;28;20223;-80
2023/06/20 11:36:06;;;;;;;2.58;2.38;;;;;35.80;100861.00;;;;5088609;28;20190;-80
2023/06/20 11:38:38;;;;;;;3.00;2.75;;;;;35.80;100862.00;;;;5081848;28;20208;-79
2023/06/20 11:41:07;;;;;;;2.78;2.40;;;;;35.80;100860.00;;;;5086669;28;20226;-80
2023/06/20 11:43:38;;;;;;;5.63;3.20;;;;;35.80;100854.00;;;;5080978;28;20680;-81
2023/06/20 11:46:06;;;;;;;2.90;2.67;;;;;35.80;100852.00;;;;5086576;28;20205;-79
2023/06/20 11:48:34;;;;;;;3.47;2.20;;;;;35.90;100862.00;;;;5087674;28;20225;-79
2023/06/20 11:51:02;;;;;;;4.63;2.58;;;;;35.90;100858.00;;;;5085615;28;20318;-80
2023/06/20 11:53:31;;;;;;;2.80;2.60;;;;;36.00;100859.00;;;;5087796;28;20201;-80
2023/06/20 11:56:02;;;;;;;2.75;2.50;;;;;36.00;100848.00;;;;5085700;28;20201;-80
2023/06/20 11:58:38;;;;;;;2.45;2.25;;;;;36.00;100862.00;;;;5088410;28;20204;-80
2023/06/20 12:01:09;;;;;;;2.60;2.40;;;;;36.00;100868.00;;;;5086217;28;20772;-80
2023/06/20 12:03:38;;;;;;;2.92;2.58;;;;;36.00;100870.00;;;;5085605;28;20189;-80
2023/06/20 12:06:27;;;;;;;4.10;3.03;;;;;35.80;100877.00;;;;5085554;28;20206;-80
2023/06/20 12:08:57;;;;;;;2.80;2.60;;;;;36.00;100877.00;;;;5077128;28;20217;-80
2023/06/20 12:11:26;;;;;;;3.45;2.75;;;;;35.90;100871.00;;;;5086891;28;20300;-79
2023/06/20 12:13:54;;;;;;;3.33;2.20;;;;;35.90;100875.00;;;;5086307;28;20201;-79
2023/06/20 12:16:22;;;;;;;3.03;2.75;;;;;36.00;100874.00;;;;5085162;28;20192;-80